sensor_id;sensor_type;location;lat;lon;timestamp;pressure;altitude;pressure_sealevel;temperature;humidity
38197;BME280;26543;51.976;4.616;2023-02-03T00:01:41;53074.72;;;-140.72;100.00
38197;BME280;26543;51.976;4.616;2023-02-03T00:04:06;53080.81;;;-140.72;100.00
38197;BME280;26543;51.976;4.616;2023-02-03T00:06:32;53095.03;;;-140.72;100.00
38197;BME280;26543;51.976;4.616;2023-02-03T00:08:58;53084.88;;;-140.72;100.00
38197;BME280;26543;51.976;4.616;2023-02-03T00:11:25;53038.19;;;-140.72;100.00
38197;BME280;26543;51.976;4.616;2023-02-03T00:13:51;53088.94;;;-140.72;100.00
38197;BME280;26543;51.976;4.616;2023-02-03T00:16:16;53084.88;;;-140.72;100.00
38197;BME280;26543;51.976;4.616;2023-02-03T00:18:41;53082.84;;;-140.72;100.00
38197;BME280;26543;51.976;4.616;2023-02-03T00:21:07;53082.84;;;-140.72;100.00
38197;BME280;26543;51.976;4.616;2023-02-03T00:23:32;53113.28;;;-140.72;100.00
38197;BME280;26543;51.976;4.616;2023-02-03T00:26:13;53082.84;;;-140.72;100.00
38197;BME280;26543;51.976;4.616;2023-02-03T00:28:39;53080.81;;;-140.72;100.00
38197;BME280;26543;51.976;4.616;2023-02-03T00:31:05;53088.94;;;-140.72;100.00
38197;BME280;26543;51.976;4.616;2023-02-03T00:33:30;53097.06;;;-140.72;100.00
38197;BME280;26543;51.976;4.616;2023-02-03T00:36:02;53097.06;;;-140.72;100.00
38197;BME280;26543;51.976;4.616;2023-02-03T00:38:28;53066.63;;;-140.72;100.00
38197;BME280;26543;51.976;4.616;2023-02-03T00:40:53;53113.28;;;-140.72;100.00
38197;BME280;26543;51.976;4.616;2023-02-03T00:43:19;53070.69;;;-140.72;100.00
38197;BME280;26543;51.976;4.616;2023-02-03T00:45:45;53064.59;;;-140.72;100.00
38197;BME280;26543;51.976;4.616;2023-02-03T00:48:10;53074.72;;;-140.72;100.00
38197;BME280;26543;51.976;4.616;2023-02-03T00:50:36;53064.59;;;-140.72;100.00
38197;BME280;26543;51.976;4.616;2023-02-03T00:53:01;53072.69;;;-140.72;100.00
38197;BME280;26543;51.976;4.616;2023-02-03T00:57:54;53088.94;;;-140.72;100.00
38197;BME280;26543;51.976;4.616;2023-02-03T01:00:20;53026.03;;;-140.72;100.00
38197;BME280;26543;51.976;4.616;2023-02-03T01:02:46;53009.78;;;-140.72;100.00
38197;BME280;26543;51.976;4.616;2023-02-03T01:05:11;53011.81;;;-140.72;100.00
38197;BME280;26543;51.976;4.616;2023-02-03T01:07:36;53080.81;;;-140.72;100.00
38197;BME280;26543;51.976;4.616;2023-02-03T01:10:03;53064.59;;;-140.72;100.00
38197;BME280;26543;51.976;4.616;2023-02-03T01:12:29;53048.34;;;-140.72;100.00
38197;BME280;26543;51.976;4.616;2023-02-03T01:14:55;53064.59;;;-140.72;100.00
38197;BME280;26543;51.976;4.616;2023-02-03T01:17:21;53072.69;;;-140.72;100.00
38197;BME280;26543;51.976;4.616;2023-02-03T01:19:47;53097.06;;;-140.72;100.00
38197;BME280;26543;51.976;4.616;2023-02-03T01:22:14;53107.19;;;-140.72;100.00
38197;BME280;26543;51.976;4.616;2023-02-03T01:24:39;53028.06;;;-140.72;100.00
38197;BME280;26543;51.976;4.616;2023-02-03T01:27:04;53088.94;;;-140.72;100.00
38197;BME280;26543;51.976;4.616;2023-02-03T01:29:30;53044.28;;;-140.72;100.00
38197;BME280;26543;51.976;4.616;2023-02-03T01:31:55;53084.88;;;-140.72;100.00
38197;BME280;26543;51.976;4.616;2023-02-03T01:34:21;53070.69;;;-140.72;100.00
38197;BME280;26543;51.976;4.616;2023-02-03T01:36:46;53093.00;;;-140.72;100.00
38197;BME280;26543;51.976;4.616;2023-02-03T01:39:12;53040.22;;;-140.72;100.00
38197;BME280;26543;51.976;4.616;2023-02-03T01:41:38;53038.19;;;-140.72;100.00
38197;BME280;26543;51.976;4.616;2023-02-03T01:47:01;53078.78;;;-140.72;100.00
38197;BME280;26543;51.976;4.616;2023-02-03T01:49:31;53084.88;;;-140.72;100.00
38197;BME280;26543;51.976;4.616;2023-02-03T01:51:59;53056.47;;;-140.72;100.00
38197;BME280;26543;51.976;4.616;2023-02-03T01:54:30;53078.78;;;-140.72;100.00
38197;BME280;26543;51.976;4.616;2023-02-03T01:57:02;53064.59;;;-140.72;100.00
38197;BME280;26543;51.976;4.616;2023-02-03T01:59:30;53030.09;;;-140.72;100.00
38197;BME280;26543;51.976;4.616;2023-02-03T02:01:57;53021.97;;;-140.72;100.00
38197;BME280;26543;51.976;4.616;2023-02-03T02:04:27;53060.53;;;-140.72;100.00
38197;BME280;26543;51.976;4.616;2023-02-03T02:06:55;53052.41;;;-140.72;100.00
38197;BME280;26543;51.976;4.616;2023-02-03T02:09:22;53060.53;;;-140.72;100.00
38197;BME280;26543;51.976;4.616;2023-02-03T02:11:48;53107.19;;;-140.72;100.00
38197;BME280;26543;51.976;4.616;2023-02-03T02:14:13;53080.81;;;-140.72;100.00
38197;BME280;26543;51.976;4.616;2023-02-03T02:16:45;53040.22;;;-140.72;100.00
38197;BME280;26543;51.976;4.616;2023-02-03T02:22:02;53068.66;;;-140.72;100.00
38197;BME280;26543;51.976;4.616;2023-02-03T02:28:05;53032.13;;;-140.72;100.00
38197;BME280;26543;51.976;4.616;2023-02-03T02:33:43;53028.06;;;-140.72;100.00
38197;BME280;26543;51.976;4.616;2023-02-03T02:39:10;53044.28;;;-140.72;100.00
38197;BME280;26543;51.976;4.616;2023-02-03T02:44:39;53040.22;;;-140.72;100.00
38197;BME280;26543;51.976;4.616;2023-02-03T02:47:11;53054.44;;;-140.72;100.00
38197;BME280;26543;51.976;4.616;2023-02-03T02:50:08;53074.72;;;-140.72;100.00
38197;BME280;26543;51.976;4.616;2023-02-03T02:52:38;53058.50;;;-140.72;100.00
38197;BME280;26543;51.976;4.616;2023-02-03T02:55:25;53074.72;;;-140.72;100.00
38197;BME280;26543;51.976;4.616;2023-02-03T02:57:57;53046.31;;;-140.72;100.00
38197;BME280;26543;51.976;4.616;2023-02-03T03:00:29;53080.81;;;-140.72;100.00
38197;BME280;26543;51.976;4.616;2023-02-03T03:02:55;53044.28;;;-140.72;100.00
38197;BME280;26543;51.976;4.616;2023-02-03T03:05:22;53015.88;;;-140.72;100.00
38197;BME280;26543;51.976;4.616;2023-02-03T03:07:59;53117.34;;;-140.72;100.00
38197;BME280;26543;51.976;4.616;2023-02-03T03:10:29;53062.56;;;-140.72;100.00
38197;BME280;26543;51.976;4.616;2023-02-03T03:13:02;53060.53;;;-140.72;100.00
38197;BME280;26543;51.976;4.616;2023-02-03T03:15:31;53024.00;;;-140.72;100.00
38197;BME280;26543;51.976;4.616;2023-02-03T03:18:04;53056.47;;;-140.72;100.00
38197;BME280;26543;51.976;4.616;2023-02-03T03:20:30;53066.63;;;-140.72;100.00
38197;BME280;26543;51.976;4.616;2023-02-03T03:23:04;53036.16;;;-140.72;100.00
38197;BME280;26543;51.976;4.616;2023-02-03T03:25:35;53093.00;;;-140.72;100.00
38197;BME280;26543;51.976;4.616;2023-02-03T03:28:08;53056.47;;;-140.72;100.00
38197;BME280;26543;51.976;4.616;2023-02-03T03:30:36;53034.16;;;-140.72;100.00
38197;BME280;26543;51.976;4.616;2023-02-03T03:33:02;53088.94;;;-140.72;100.00
38197;BME280;26543;51.976;4.616;2023-02-03T03:36:02;53072.69;;;-140.72;100.00
38197;BME280;26543;51.976;4.616;2023-02-03T03:38:41;53052.41;;;-140.72;100.00
38197;BME280;26543;51.976;4.616;2023-02-03T03:41:19;53044.28;;;-140.72;100.00
38197;BME280;26543;51.976;4.616;2023-02-03T03:43:48;53058.50;;;-140.72;100.00
38197;BME280;26543;51.976;4.616;2023-02-03T03:46:20;53056.47;;;-140.72;100.00
38197;BME280;26543;51.976;4.616;2023-02-03T03:48:52;53019.94;;;-140.72;100.00
38197;BME280;26543;51.976;4.616;2023-02-03T03:51:26;53076.75;;;-140.72;100.00
38197;BME280;26543;51.976;4.616;2023-02-03T03:53:54;53005.72;;;-140.72;100.00
38197;BME280;26543;51.976;4.616;2023-02-03T03:56:27;53052.41;;;-140.72;100.00
38197;BME280;26543;51.976;4.616;2023-02-03T03:58:54;53048.34;;;-140.72;100.00
38197;BME280;26543;51.976;4.616;2023-02-03T04:01:22;53074.72;;;-140.72;100.00
38197;BME280;26543;51.976;4.616;2023-02-03T04:03:53;53036.16;;;-140.72;100.00
38197;BME280;26543;51.976;4.616;2023-02-03T04:06:20;53080.81;;;-140.72;100.00
38197;BME280;26543;51.976;4.616;2023-02-03T04:08:45;53072.69;;;-140.72;100.00
38197;BME280;26543;51.976;4.616;2023-02-03T04:11:13;53060.53;;;-140.72;100.00
38197;BME280;26543;51.976;4.616;2023-02-03T04:13:59;53062.56;;;-140.72;100.00
38197;BME280;26543;51.976;4.616;2023-02-03T04:16:24;53097.06;;;-140.72;100.00
38197;BME280;26543;51.976;4.616;2023-02-03T04:18:52;53042.25;;;-140.72;100.00
38197;BME280;26543;51.976;4.616;2023-02-03T04:21:18;53036.16;;;-140.72;100.00
38197;BME280;26543;51.976;4.616;2023-02-03T04:23:43;53058.50;;;-140.72;100.00
38197;BME280;26543;51.976;4.616;2023-02-03T04:26:09;53113.28;;;-140.72;100.00
38197;BME280;26543;51.976;4.616;2023-02-03T04:28:37;53078.78;;;-140.72;100.00
38197;BME280;26543;51.976;4.616;2023-02-03T04:31:02;53070.69;;;-140.72;100.00
38197;BME280;26543;51.976;4.616;2023-02-03T04:33:27;53090.97;;;-140.72;100.00
38197;BME280;26543;51.976;4.616;2023-02-03T04:35:53;53036.16;;;-140.72;100.00
38197;BME280;26543;51.976;4.616;2023-02-03T04:38:18;53097.06;;;-140.72;100.00
38197;BME280;26543;51.976;4.616;2023-02-03T04:40:44;53058.50;;;-140.72;100.00
38197;BME280;26543;51.976;4.616;2023-02-03T04:43:10;53062.56;;;-140.72;100.00
38197;BME280;26543;51.976;4.616;2023-02-03T04:45:36;53070.69;;;-140.72;100.00
38197;BME280;26543;51.976;4.616;2023-02-03T04:48:02;53056.47;;;-140.72;100.00
38197;BME280;26543;51.976;4.616;2023-02-03T04:50:29;53070.69;;;-140.72;100.00
38197;BME280;26543;51.976;4.616;2023-02-03T04:52:54;53056.47;;;-140.72;100.00
38197;BME280;26543;51.976;4.616;2023-02-03T04:55:23;53068.66;;;-140.72;100.00
38197;BME280;26543;51.976;4.616;2023-02-03T04:57:48;53052.41;;;-140.72;100.00
38197;BME280;26543;51.976;4.616;2023-02-03T05:00:19;53115.31;;;-140.72;100.00
38197;BME280;26543;51.976;4.616;2023-02-03T05:02:44;53086.91;;;-140.72;100.00
38197;BME280;26543;51.976;4.616;2023-02-03T05:05:09;53080.81;;;-140.72;100.00
38197;BME280;26543;51.976;4.616;2023-02-03T05:07:35;53038.19;;;-140.72;100.00
38197;BME280;26543;51.976;4.616;2023-02-03T05:10:00;53084.88;;;-140.72;100.00
38197;BME280;26543;51.976;4.616;2023-02-03T05:12:25;53056.47;;;-140.72;100.00
38197;BME280;26543;51.976;4.616;2023-02-03T05:14:51;53021.97;;;-140.72;100.00
38197;BME280;26543;51.976;4.616;2023-02-03T05:17:16;53044.28;;;-140.72;100.00
38197;BME280;26543;51.976;4.616;2023-02-03T05:19:41;53060.53;;;-140.72;100.00
38197;BME280;26543;51.976;4.616;2023-02-03T05:22:07;53082.84;;;-140.72;100.00
38197;BME280;26543;51.976;4.616;2023-02-03T05:24:32;53074.72;;;-140.72;100.00
38197;BME280;26543;51.976;4.616;2023-02-03T05:26:58;53078.78;;;-140.72;100.00
38197;BME280;26543;51.976;4.616;2023-02-03T05:29:23;53080.81;;;-140.72;100.00
38197;BME280;26543;51.976;4.616;2023-02-03T05:31:49;53103.16;;;-140.72;100.00
38197;BME280;26543;51.976;4.616;2023-02-03T05:34:14;53054.44;;;-140.72;100.00
38197;BME280;26543;51.976;4.616;2023-02-03T05:36:48;53084.88;;;-140.72;100.00
38197;BME280;26543;51.976;4.616;2023-02-03T05:39:14;53101.13;;;-140.72;100.00
38197;BME280;26543;51.976;4.616;2023-02-03T05:41:39;53028.06;;;-140.72;100.00
38197;BME280;26543;51.976;4.616;2023-02-03T05:44:26;53048.34;;;-140.72;100.00
38197;BME280;26543;51.976;4.616;2023-02-03T05:46:53;53080.81;;;-140.72;100.00
38197;BME280;26543;51.976;4.616;2023-02-03T05:49:19;53019.94;;;-140.72;100.00
38197;BME280;26543;51.976;4.616;2023-02-03T05:51:45;53078.78;;;-140.72;100.00
38197;BME280;26543;51.976;4.616;2023-02-03T05:54:11;53056.47;;;-140.72;100.00
38197;BME280;26543;51.976;4.616;2023-02-03T05:56:37;53072.69;;;-140.72;100.00
38197;BME280;26543;51.976;4.616;2023-02-03T05:59:03;53093.00;;;-140.72;100.00
38197;BME280;26543;51.976;4.616;2023-02-03T06:01:28;53046.31;;;-140.72;100.00
38197;BME280;26543;51.976;4.616;2023-02-03T06:03:54;53044.28;;;-140.72;100.00
38197;BME280;26543;51.976;4.616;2023-02-03T06:06:19;53070.69;;;-140.72;100.00
38197;BME280;26543;51.976;4.616;2023-02-03T06:08:47;53052.41;;;-140.72;100.00
38197;BME280;26543;51.976;4.616;2023-02-03T06:11:13;53058.50;;;-140.72;100.00
38197;BME280;26543;51.976;4.616;2023-02-03T06:13:38;53060.53;;;-140.72;100.00
38197;BME280;26543;51.976;4.616;2023-02-03T06:16:03;53107.19;;;-140.72;100.00
38197;BME280;26543;51.976;4.616;2023-02-03T06:18:29;53056.47;;;-140.72;100.00
38197;BME280;26543;51.976;4.616;2023-02-03T06:20:55;53072.69;;;-140.72;100.00
38197;BME280;26543;51.976;4.616;2023-02-03T06:23:21;53062.56;;;-140.72;100.00
38197;BME280;26543;51.976;4.616;2023-02-03T06:25:47;53048.34;;;-140.72;100.00
38197;BME280;26543;51.976;4.616;2023-02-03T06:28:13;53088.94;;;-140.72;100.00
38197;BME280;26543;51.976;4.616;2023-02-03T06:30:38;53046.31;;;-140.72;100.00
38197;BME280;26543;51.976;4.616;2023-02-03T06:33:04;53093.00;;;-140.72;100.00
38197;BME280;26543;51.976;4.616;2023-02-03T06:35:29;53050.38;;;-140.72;100.00
38197;BME280;26543;51.976;4.616;2023-02-03T06:37:55;53044.28;;;-140.72;100.00
38197;BME280;26543;51.976;4.616;2023-02-03T06:40:20;53052.41;;;-140.72;100.00
38197;BME280;26543;51.976;4.616;2023-02-03T06:42:46;53097.06;;;-140.72;100.00
38197;BME280;26543;51.976;4.616;2023-02-03T06:45:13;53072.69;;;-140.72;100.00
38197;BME280;26543;51.976;4.616;2023-02-03T06:47:39;53036.16;;;-140.72;100.00
38197;BME280;26543;51.976;4.616;2023-02-03T06:50:05;53086.91;;;-140.72;100.00
38197;BME280;26543;51.976;4.616;2023-02-03T06:52:31;53030.09;;;-140.72;100.00
38197;BME280;26543;51.976;4.616;2023-02-03T06:54:56;53080.81;;;-140.72;100.00
38197;BME280;26543;51.976;4.616;2023-02-03T06:57:22;53050.38;;;-140.72;100.00
38197;BME280;26543;51.976;4.616;2023-02-03T06:59:47;53064.59;;;-140.72;100.00
38197;BME280;26543;51.976;4.616;2023-02-03T07:02:12;53052.41;;;-140.72;100.00
38197;BME280;26543;51.976;4.616;2023-02-03T07:04:38;53030.09;;;-140.72;100.00
38197;BME280;26543;51.976;4.616;2023-02-03T07:07:04;53060.53;;;-140.72;100.00
38197;BME280;26543;51.976;4.616;2023-02-03T07:09:29;53050.38;;;-140.72;100.00
38197;BME280;26543;51.976;4.616;2023-02-03T07:11:54;53072.69;;;-140.72;100.00
38197;BME280;26543;51.976;4.616;2023-02-03T07:14:20;53062.56;;;-140.72;100.00
38197;BME280;26543;51.976;4.616;2023-02-03T07:16:45;53070.69;;;-140.72;100.00
38197;BME280;26543;51.976;4.616;2023-02-03T07:19:10;53050.38;;;-140.72;100.00
38197;BME280;26543;51.976;4.616;2023-02-03T07:21:36;53064.59;;;-140.72;100.00
38197;BME280;26543;51.976;4.616;2023-02-03T07:24:01;53076.75;;;-140.72;100.00
38197;BME280;26543;51.976;4.616;2023-02-03T07:26:27;53050.38;;;-140.72;100.00
38197;BME280;26543;51.976;4.616;2023-02-03T07:28:52;53084.88;;;-140.72;100.00
38197;BME280;26543;51.976;4.616;2023-02-03T07:31:19;53068.66;;;-140.72;100.00
38197;BME280;26543;51.976;4.616;2023-02-03T07:33:44;53070.69;;;-140.72;100.00
38197;BME280;26543;51.976;4.616;2023-02-03T07:36:10;53097.06;;;-140.72;100.00
38197;BME280;26543;51.976;4.616;2023-02-03T07:38:35;53095.03;;;-140.72;100.00
38197;BME280;26543;51.976;4.616;2023-02-03T07:41:05;53060.53;;;-140.72;100.00
38197;BME280;26543;51.976;4.616;2023-02-03T07:43:30;53078.78;;;-140.72;100.00
38197;BME280;26543;51.976;4.616;2023-02-03T07:45:56;53068.66;;;-140.72;100.00
38197;BME280;26543;51.976;4.616;2023-02-03T07:48:25;53064.59;;;-140.72;100.00
38197;BME280;26543;51.976;4.616;2023-02-03T07:50:51;53076.75;;;-140.72;100.00
38197;BME280;26543;51.976;4.616;2023-02-03T07:53:19;53062.56;;;-140.72;100.00
38197;BME280;26543;51.976;4.616;2023-02-03T07:55:44;53078.78;;;-140.72;100.00
38197;BME280;26543;51.976;4.616;2023-02-03T07:58:10;53028.06;;;-140.72;100.00
38197;BME280;26543;51.976;4.616;2023-02-03T08:00:36;53036.16;;;-140.72;100.00
38197;BME280;26543;51.976;4.616;2023-02-03T08:03:01;53042.25;;;-140.72;100.00
38197;BME280;26543;51.976;4.616;2023-02-03T08:05:27;53056.47;;;-140.72;100.00
38197;BME280;26543;51.976;4.616;2023-02-03T08:07:54;53038.19;;;-140.72;100.00
38197;BME280;26543;51.976;4.616;2023-02-03T08:10:19;53064.59;;;-140.72;100.00
38197;BME280;26543;51.976;4.616;2023-02-03T08:12:45;53060.53;;;-140.72;100.00
38197;BME280;26543;51.976;4.616;2023-02-03T08:15:12;53072.69;;;-140.72;100.00
38197;BME280;26543;51.976;4.616;2023-02-03T08:17:37;53044.28;;;-140.72;100.00
38197;BME280;26543;51.976;4.616;2023-02-03T08:20:06;53084.88;;;-140.72;100.00
38197;BME280;26543;51.976;4.616;2023-02-03T08:22:32;53052.41;;;-140.72;100.00
38197;BME280;26543;51.976;4.616;2023-02-03T08:24:57;53054.44;;;-140.72;100.00
38197;BME280;26543;51.976;4.616;2023-02-03T08:27:23;53052.41;;;-140.72;100.00
38197;BME280;26543;51.976;4.616;2023-02-03T08:29:48;53044.28;;;-140.72;100.00
38197;BME280;26543;51.976;4.616;2023-02-03T08:32:20;53044.28;;;-140.72;100.00
38197;BME280;26543;51.976;4.616;2023-02-03T08:34:46;53013.84;;;-140.72;100.00
38197;BME280;26543;51.976;4.616;2023-02-03T08:37:13;53056.47;;;-140.72;100.00
38197;BME280;26543;51.976;4.616;2023-02-03T08:39:38;53050.38;;;-140.72;100.00
38197;BME280;26543;51.976;4.616;2023-02-03T08:42:05;53040.22;;;-140.72;100.00
38197;BME280;26543;51.976;4.616;2023-02-03T08:44:31;53060.53;;;-140.72;100.00
38197;BME280;26543;51.976;4.616;2023-02-03T08:46:57;53060.53;;;-140.72;100.00
38197;BME280;26543;51.976;4.616;2023-02-03T08:49:25;53040.22;;;-140.72;100.00
38197;BME280;26543;51.976;4.616;2023-02-03T08:51:51;53050.38;;;-140.72;100.00
38197;BME280;26543;51.976;4.616;2023-02-03T08:54:17;53040.22;;;-140.72;100.00
38197;BME280;26543;51.976;4.616;2023-02-03T08:56:44;53034.16;;;-140.72;100.00
38197;BME280;26543;51.976;4.616;2023-02-03T08:59:10;53015.88;;;-140.72;100.00
38197;BME280;26543;51.976;4.616;2023-02-03T09:01:36;53064.59;;;-140.72;100.00
38197;BME280;26543;51.976;4.616;2023-02-03T09:04:01;53019.94;;;-140.72;100.00
38197;BME280;26543;51.976;4.616;2023-02-03T09:06:29;53052.41;;;-140.72;100.00
38197;BME280;26543;51.976;4.616;2023-02-03T09:08:55;53028.06;;;-140.72;100.00
38197;BME280;26543;51.976;4.616;2023-02-03T09:11:21;53019.94;;;-140.72;100.00
38197;BME280;26543;51.976;4.616;2023-02-03T09:13:46;53052.41;;;-140.72;100.00
38197;BME280;26543;51.976;4.616;2023-02-03T09:16:14;53030.09;;;-140.72;100.00
38197;BME280;26543;51.976;4.616;2023-02-03T09:18:44;53056.47;;;-140.72;100.00
38197;BME280;26543;51.976;4.616;2023-02-03T09:21:11;53026.03;;;-140.72;100.00
38197;BME280;26543;51.976;4.616;2023-02-03T09:23:37;53038.19;;;-140.72;100.00
38197;BME280;26543;51.976;4.616;2023-02-03T09:26:04;53046.31;;;-140.72;100.00
38197;BME280;26543;51.976;4.616;2023-02-03T09:28:31;53056.47;;;-140.72;100.00
38197;BME280;26543;51.976;4.616;2023-02-03T09:31:00;52995.59;;;-140.72;100.00
38197;BME280;26543;51.976;4.616;2023-02-03T09:33:26;53050.38;;;-140.72;100.00
38197;BME280;26543;51.976;4.616;2023-02-03T09:35:53;53015.88;;;-140.72;100.00
38197;BME280;26543;51.976;4.616;2023-02-03T09:38:18;53028.06;;;-140.72;100.00
38197;BME280;26543;51.976;4.616;2023-02-03T09:40:46;53009.78;;;-140.72;100.00
38197;BME280;26543;51.976;4.616;2023-02-03T09:43:36;53028.06;;;-140.72;100.00
38197;BME280;26543;51.976;4.616;2023-02-03T09:46:16;53003.69;;;-140.72;100.00
38197;BME280;26543;51.976;4.616;2023-02-03T09:48:47;52999.66;;;-140.72;100.00
38197;BME280;26543;51.976;4.616;2023-02-03T09:51:46;53028.06;;;-140.72;100.00
38197;BME280;26543;51.976;4.616;2023-02-03T09:54:56;52993.56;;;-140.72;100.00
38197;BME280;26543;51.976;4.616;2023-02-03T09:57:25;53015.88;;;-140.72;100.00
38197;BME280;26543;51.976;4.616;2023-02-03T09:59:52;53019.94;;;-140.72;100.00
38197;BME280;26543;51.976;4.616;2023-02-03T10:02:40;52987.47;;;-140.72;100.00
38197;BME280;26543;51.976;4.616;2023-02-03T10:05:33;52955.00;;;-140.72;100.00
38197;BME280;26543;51.976;4.616;2023-02-03T10:11:21;52991.53;;;-140.72;100.00
38197;BME280;26543;51.976;4.616;2023-02-03T10:14:15;52979.34;;;-140.72;100.00
38197;BME280;26543;51.976;4.616;2023-02-03T10:19:36;52997.63;;;-140.72;100.00
38197;BME280;26543;51.976;4.616;2023-02-03T10:22:07;52983.41;;;-140.72;100.00
38197;BME280;26543;51.976;4.616;2023-02-03T10:24:46;52983.41;;;-140.72;100.00
38197;BME280;26543;51.976;4.616;2023-02-03T10:27:22;53019.94;;;-140.72;100.00
38197;BME280;26543;51.976;4.616;2023-02-03T10:30:06;52997.63;;;-140.72;100.00
38197;BME280;26543;51.976;4.616;2023-02-03T10:32:34;52983.41;;;-140.72;100.00
38197;BME280;26543;51.976;4.616;2023-02-03T10:35:01;52967.16;;;-140.72;100.00
38197;BME280;26543;51.976;4.616;2023-02-03T10:39:56;52981.38;;;-140.72;100.00
38197;BME280;26543;51.976;4.616;2023-02-03T10:42:24;52940.78;;;-140.72;100.00
38197;BME280;26543;51.976;4.616;2023-02-03T10:44:55;53003.69;;;-140.72;100.00
38197;BME280;26543;51.976;4.616;2023-02-03T10:47:31;52991.53;;;-140.72;100.00
38197;BME280;26543;51.976;4.616;2023-02-03T10:50:21;52959.06;;;-140.72;100.00
38197;BME280;26543;51.976;4.616;2023-02-03T10:52:47;52975.28;;;-140.72;100.00
38197;BME280;26543;51.976;4.616;2023-02-03T10:55:32;53007.75;;;-140.72;100.00
38197;BME280;26543;51.976;4.616;2023-02-03T10:58:05;52985.44;;;-140.72;100.00
38197;BME280;26543;51.976;4.616;2023-02-03T11:00:34;53003.69;;;-140.72;100.00
38197;BME280;26543;51.976;4.616;2023-02-03T11:03:07;52997.63;;;-140.72;100.00
38197;BME280;26543;51.976;4.616;2023-02-03T11:05:40;52993.56;;;-140.72;100.00
38197;BME280;26543;51.976;4.616;2023-02-03T11:08:13;52944.84;;;-140.72;100.00
38197;BME280;26543;51.976;4.616;2023-02-03T11:10:39;53017.91;;;-140.72;100.00
38197;BME280;26543;51.976;4.616;2023-02-03T11:13:25;52942.81;;;-140.72;100.00
38197;BME280;26543;51.976;4.616;2023-02-03T11:20:56;52981.38;;;-140.72;100.00
38197;BME280;26543;51.976;4.616;2023-02-03T11:23:23;52987.47;;;-140.72;100.00
38197;BME280;26543;51.976;4.616;2023-02-03T11:25:48;52955.00;;;-140.72;100.00
38197;BME280;26543;51.976;4.616;2023-02-03T11:28:17;53003.69;;;-140.72;100.00
38197;BME280;26543;51.976;4.616;2023-02-03T11:30:43;52963.13;;;-140.72;100.00
38197;BME280;26543;51.976;4.616;2023-02-03T11:33:28;52999.66;;;-140.72;100.00
38197;BME280;26543;51.976;4.616;2023-02-03T11:36:01;52959.06;;;-140.72;100.00
38197;BME280;26543;51.976;4.616;2023-02-03T11:38:32;53001.66;;;-140.72;100.00
38197;BME280;26543;51.976;4.616;2023-02-03T11:41:00;52967.16;;;-140.72;100.00
38197;BME280;26543;51.976;4.616;2023-02-03T11:43:27;52959.06;;;-140.72;100.00
38197;BME280;26543;51.976;4.616;2023-02-03T11:46:14;53003.69;;;-140.72;100.00
38197;BME280;26543;51.976;4.616;2023-02-03T11:48:50;53007.75;;;-140.72;100.00
38197;BME280;26543;51.976;4.616;2023-02-03T11:52:04;52971.22;;;-140.72;100.00
38197;BME280;26543;51.976;4.616;2023-02-03T11:57:56;52985.44;;;-140.72;100.00
38197;BME280;26543;51.976;4.616;2023-02-03T12:09:42;52967.16;;;-140.72;100.00
38197;BME280;26543;51.976;4.616;2023-02-03T12:22:44;53003.69;;;-140.72;100.00
38197;BME280;26543;51.976;4.616;2023-02-03T12:30:52;52995.59;;;-140.72;100.00
38197;BME280;26543;51.976;4.616;2023-02-03T12:33:27;52975.28;;;-140.72;100.00
38197;BME280;26543;51.976;4.616;2023-02-03T12:35:58;53013.84;;;-140.72;100.00
38197;BME280;26543;51.976;4.616;2023-02-03T12:38:38;52938.75;;;-140.72;100.00
38197;BME280;26543;51.976;4.616;2023-02-03T12:41:16;53003.69;;;-140.72;100.00
38197;BME280;26543;51.976;4.616;2023-02-03T12:43:44;53011.81;;;-140.72;100.00
38197;BME280;26543;51.976;4.616;2023-02-03T12:46:22;53001.66;;;-140.72;100.00
38197;BME280;26543;51.976;4.616;2023-02-03T12:49:04;53007.75;;;-140.72;100.00
38197;BME280;26543;51.976;4.616;2023-02-03T12:51:39;52975.28;;;-140.72;100.00
38197;BME280;26543;51.976;4.616;2023-02-03T12:54:36;52969.19;;;-140.72;100.00
38197;BME280;26543;51.976;4.616;2023-02-03T12:57:21;52983.41;;;-140.72;100.00
38197;BME280;26543;51.976;4.616;2023-02-03T13:00:37;52946.88;;;-140.72;100.00
38197;BME280;26543;51.976;4.616;2023-02-03T13:03:12;52957.03;;;-140.72;100.00
38197;BME280;26543;51.976;4.616;2023-02-03T13:09:00;52993.56;;;-140.72;100.00
38197;BME280;26543;51.976;4.616;2023-02-03T13:14:01;52987.47;;;-140.72;100.00
38197;BME280;26543;51.976;4.616;2023-02-03T13:16:32;53024.00;;;-140.72;100.00
38197;BME280;26543;51.976;4.616;2023-02-03T13:19:09;52981.38;;;-140.72;100.00
38197;BME280;26543;51.976;4.616;2023-02-03T13:21:37;52969.19;;;-140.72;100.00
38197;BME280;26543;51.976;4.616;2023-02-03T13:24:03;52989.50;;;-140.72;100.00
38197;BME280;26543;51.976;4.616;2023-02-03T13:34:51;52977.31;;;-140.72;100.00
38197;BME280;26543;51.976;4.616;2023-02-03T13:40:33;53036.16;;;-140.72;100.00
38197;BME280;26543;51.976;4.616;2023-02-03T13:43:05;53001.66;;;-140.72;100.00
38197;BME280;26543;51.976;4.616;2023-02-03T13:45:42;52995.59;;;-140.72;100.00
38197;BME280;26543;51.976;4.616;2023-02-03T13:48:19;53007.75;;;-140.72;100.00
38197;BME280;26543;51.976;4.616;2023-02-03T13:50:47;53013.84;;;-140.72;100.00
38197;BME280;26543;51.976;4.616;2023-02-03T13:55:44;53019.94;;;-140.72;100.00
38197;BME280;26543;51.976;4.616;2023-02-03T13:58:28;52977.31;;;-140.72;100.00
38197;BME280;26543;51.976;4.616;2023-02-03T14:05:50;53003.69;;;-140.72;100.00
38197;BME280;26543;51.976;4.616;2023-02-03T14:22:07;53044.28;;;-140.72;100.00
38197;BME280;26543;51.976;4.616;2023-02-03T14:24:38;53064.59;;;-140.72;100.00